createdAt,value
2022-11-27T00:01:35.611Z,0.95
2022-11-27T00:04:03.942Z,0.99
2022-11-27T00:06:33.019Z,1.00
2022-11-27T00:09:03.721Z,0.99
2022-11-27T00:11:32.243Z,1.03
2022-11-27T00:14:00.918Z,1.08
2022-11-27T00:16:30.090Z,1.08
2022-11-27T00:18:58.567Z,1.10
2022-11-27T00:21:29.040Z,1.14
2022-11-27T00:23:58.879Z,1.19
2022-11-27T00:26:27.101Z,1.17
2022-11-27T00:28:55.727Z,1.15
2022-11-27T00:31:28.735Z,1.10
2022-11-27T00:33:58.843Z,1.11
2022-11-27T00:36:28.586Z,1.13
2022-11-27T00:38:56.368Z,1.14
2022-11-27T00:41:26.445Z,1.17
2022-11-27T00:43:55.539Z,1.18
2022-11-27T00:46:28.832Z,1.26
2022-11-27T00:49:01.951Z,1.31
2022-11-27T00:51:30.389Z,1.28
2022-11-27T00:53:58.666Z,1.32
2022-11-27T00:56:32.422Z,1.34
2022-11-27T00:59:00.913Z,1.33
2022-11-27T01:01:31.680Z,1.34
2022-11-27T01:04:01.315Z,1.32
2022-11-27T01:06:30.335Z,1.31
2022-11-27T01:08:58.763Z,1.31
2022-11-27T01:11:30.487Z,1.38
2022-11-27T01:14:01.318Z,1.36
2022-11-27T01:16:30.973Z,1.36
2022-11-27T01:19:00.810Z,1.40
2022-11-27T01:21:32.475Z,1.40
2022-11-27T01:24:01.886Z,1.43
2022-11-27T01:26:30.199Z,1.39
2022-11-27T01:28:59.123Z,1.31
2022-11-27T01:31:30.218Z,1.28
2022-11-27T01:34:01.927Z,1.30
2022-11-27T01:36:30.847Z,1.33
2022-11-27T01:38:59.676Z,1.33
2022-11-27T01:41:32.966Z,1.42
2022-11-27T01:44:23.512Z,1.41
2022-11-27T01:47:00.409Z,1.45
2022-11-27T01:49:38.507Z,1.44
2022-11-27T01:52:13.671Z,1.42
2022-11-27T01:54:52.222Z,1.44
2022-11-27T01:57:26.445Z,1.45
2022-11-27T01:59:57.849Z,1.49
2022-11-27T02:02:25.913Z,1.55
2022-11-27T02:04:55.106Z,1.58
2022-11-27T02:07:22.898Z,1.62
2022-11-27T02:09:51.225Z,1.60
2022-11-27T02:12:48.280Z,1.59
2022-11-27T02:15:47.420Z,1.63
2022-11-27T02:19:03.182Z,1.59
2022-11-27T02:21:51.863Z,1.54
2022-11-27T02:24:49.044Z,1.52
2022-11-27T02:27:32.066Z,1.54
2022-11-27T02:30:01.734Z,1.60
2022-11-27T02:32:42.010Z,1.64
2022-11-27T02:35:17.657Z,1.63
2022-11-27T02:37:53.383Z,1.59
2022-11-27T02:40:38.215Z,1.58
2022-11-27T02:43:12.171Z,1.54
2022-11-27T02:45:43.860Z,1.52
2022-11-27T02:48:15.275Z,1.50
2022-11-27T02:50:45.859Z,1.52
2022-11-27T02:53:25.884Z,1.57
2022-11-27T02:55:53.665Z,1.58
2022-11-27T02:58:23.542Z,1.57
2022-11-27T03:00:54.839Z,1.55
2022-11-27T03:03:26.729Z,1.54
2022-11-27T03:06:01.058Z,1.54
2022-11-27T03:08:30.859Z,1.56
2022-11-27T03:11:02.823Z,1.58
2022-11-27T03:13:38.101Z,1.60
2022-11-27T03:16:31.227Z,1.60
2022-11-27T03:19:03.440Z,1.64
2022-11-27T03:21:39.150Z,1.76
2022-11-27T03:27:39.911Z,1.85
2022-11-27T03:30:11.760Z,1.89
2022-11-27T03:32:39.866Z,1.91
2022-11-27T03:35:11.686Z,1.91
2022-11-27T03:37:39.658Z,1.87
2022-11-27T03:40:08.694Z,1.89
2022-11-27T03:43:02.737Z,1.91
2022-11-27T03:45:45.515Z,1.93
2022-11-27T03:48:31.388Z,1.94
2022-11-27T03:50:58.991Z,1.93
2022-11-27T03:54:10.843Z,1.91
2022-11-27T03:57:00.856Z,1.84
2022-11-27T03:59:32.945Z,1.79
2022-11-27T04:02:00.699Z,1.71
2022-11-27T04:04:28.539Z,1.68
2022-11-27T04:06:56.398Z,1.66
2022-11-27T04:09:25.522Z,1.70
2022-11-27T04:11:53.291Z,1.70
2022-11-27T04:14:21.006Z,1.72
2022-11-27T04:16:48.710Z,1.76
2022-11-27T04:19:16.393Z,1.79
2022-11-27T04:21:44.053Z,1.79
2022-11-27T04:24:11.737Z,1.78
2022-11-27T04:26:39.440Z,1.75
2022-11-27T04:29:07.103Z,1.70
2022-11-27T04:31:34.885Z,1.68
2022-11-27T04:34:02.682Z,1.67
2022-11-27T04:36:32.555Z,1.69
2022-11-27T04:39:03.834Z,1.74
2022-11-27T04:41:31.548Z,1.77
2022-11-27T04:43:59.243Z,1.78
2022-11-27T04:46:26.965Z,1.78
2022-11-27T04:48:54.742Z,1.75
2022-11-27T04:51:22.647Z,1.71
2022-11-27T04:53:51.005Z,1.69
2022-11-27T04:56:18.703Z,1.69
2022-11-27T04:58:46.449Z,1.68
2022-11-27T05:01:14.241Z,1.67
2022-11-27T05:03:42.062Z,1.71
2022-11-27T05:06:09.903Z,1.75
2022-11-27T05:08:37.587Z,1.80
2022-11-27T05:11:07.836Z,1.83
2022-11-27T05:13:35.692Z,1.88
2022-11-27T05:16:04.214Z,1.90
2022-11-27T05:18:32.233Z,1.87
2022-11-27T05:21:02.424Z,1.87
2022-11-27T05:23:30.956Z,1.81
2022-11-27T05:25:58.787Z,1.77
2022-11-27T05:28:27.275Z,1.78
2022-11-27T05:30:55.164Z,1.81
2022-11-27T05:33:23.131Z,1.85
2022-11-27T05:35:50.948Z,1.88
2022-11-27T05:38:18.727Z,1.93
2022-11-27T05:40:46.417Z,1.95
2022-11-27T05:43:14.207Z,2.01
2022-11-27T05:45:41.959Z,2.03
2022-11-27T05:48:09.854Z,2.04
2022-11-27T05:50:37.808Z,2.00
2022-11-27T05:53:05.955Z,1.96
2022-11-27T05:55:33.641Z,1.94
2022-11-27T05:58:01.316Z,1.95
2022-11-27T06:00:29.096Z,1.98
2022-11-27T06:02:56.881Z,2.03
2022-11-27T06:05:24.701Z,2.08
2022-11-27T06:07:52.521Z,2.07
2022-11-27T06:10:20.632Z,2.02
2022-11-27T06:12:48.314Z,1.98
2022-11-27T06:15:16.151Z,1.97
2022-11-27T06:17:43.823Z,1.91
2022-11-27T06:20:11.704Z,1.91
2022-11-27T06:22:39.484Z,1.97
2022-11-27T06:25:07.549Z,2.04
2022-11-27T06:27:36.736Z,2.11
2022-11-27T06:30:06.031Z,2.16
2022-11-27T06:32:33.774Z,2.18
2022-11-27T06:35:01.615Z,2.21
2022-11-27T06:37:30.231Z,2.26
2022-11-27T06:39:58.037Z,2.25
2022-11-27T06:42:28.408Z,2.22
2022-11-27T06:44:56.664Z,2.20
2022-11-27T06:47:24.583Z,2.20
2022-11-27T06:49:52.239Z,2.21
2022-11-27T06:52:20.031Z,2.24
2022-11-27T06:54:48.111Z,2.28
2022-11-27T06:57:16.475Z,2.33
2022-11-27T06:59:44.127Z,2.39
2022-11-27T07:02:15.090Z,2.41
2022-11-27T07:04:43.088Z,2.41
2022-11-27T07:07:11.032Z,2.42
2022-11-27T07:09:38.871Z,2.42
2022-11-27T07:12:08.172Z,2.41
2022-11-27T07:14:35.855Z,2.39
2022-11-27T07:17:03.640Z,2.42
2022-11-27T07:19:31.320Z,2.45
2022-11-27T07:21:59.037Z,2.49
2022-11-27T07:24:26.780Z,2.46
2022-11-27T07:26:54.512Z,2.43
2022-11-27T07:29:22.200Z,2.41
2022-11-27T07:31:51.496Z,2.42
2022-11-27T07:34:21.677Z,2.41
2022-11-27T07:36:49.715Z,2.41
2022-11-27T07:39:28.741Z,2.40
2022-11-27T07:42:30.950Z,2.41
2022-11-27T07:44:55.829Z,2.46
2022-11-27T07:47:23.528Z,2.53
2022-11-27T07:49:51.354Z,2.55
2022-11-27T07:52:19.001Z,2.56
2022-11-27T07:54:46.662Z,2.57
2022-11-27T07:57:14.405Z,2.60
2022-11-27T07:59:47.154Z,2.60
2022-11-27T08:02:15.471Z,2.59
2022-11-27T08:04:43.722Z,2.59
2022-11-27T08:07:11.888Z,2.61
2022-11-27T08:09:40.038Z,2.65
2022-11-27T08:12:07.864Z,2.69
2022-11-27T08:14:35.591Z,2.77
2022-11-27T08:17:03.393Z,2.83
2022-11-27T08:19:31.128Z,2.86
2022-11-27T08:21:58.943Z,2.91
2022-11-27T08:24:26.582Z,2.91
2022-11-27T08:26:54.413Z,2.94
2022-11-27T08:29:22.223Z,2.93
2022-11-27T08:31:50.040Z,2.94
2022-11-27T08:34:17.865Z,2.95
2022-11-27T08:36:45.510Z,2.94
2022-11-27T08:39:14.298Z,2.93
2022-11-27T08:41:41.979Z,2.94
2022-11-27T08:44:09.740Z,2.96
2022-11-27T08:46:38.842Z,2.99
2022-11-27T08:49:06.577Z,3.03
2022-11-27T08:51:34.451Z,3.05
2022-11-27T08:54:02.268Z,3.07
2022-11-27T08:56:29.950Z,3.11
2022-11-27T08:58:57.679Z,3.14
2022-11-27T09:01:28.951Z,3.19
2022-11-27T09:03:57.053Z,3.19
2022-11-27T09:06:30.340Z,3.19
2022-11-27T09:09:02.871Z,3.22
2022-11-27T09:11:31.992Z,3.29
2022-11-27T09:14:01.894Z,3.37
2022-11-27T09:16:30.686Z,3.44
2022-11-27T09:18:58.928Z,3.47
2022-11-27T09:21:28.339Z,3.54
2022-11-27T09:23:58.443Z,3.60
2022-11-27T09:26:27.847Z,3.64
2022-11-27T09:28:57.442Z,3.66
2022-11-27T09:31:26.427Z,3.65
2022-11-27T09:33:54.396Z,3.67
2022-11-27T09:36:24.432Z,3.68
2022-11-27T09:38:52.694Z,3.70
2022-11-27T09:41:26.600Z,3.73
2022-11-27T09:44:02.946Z,3.79
2022-11-27T09:46:38.774Z,3.88
2022-11-27T09:49:35.924Z,3.98
2022-11-27T09:52:14.757Z,4.03
2022-11-27T09:55:05.725Z,4.05
2022-11-27T09:57:37.673Z,4.10
2022-11-27T10:00:13.271Z,4.15
2022-11-27T10:02:43.152Z,4.16
2022-11-27T10:05:44.588Z,4.22
2022-11-27T10:09:02.086Z,4.29
2022-11-27T10:11:32.100Z,4.30
2022-11-27T10:14:08.979Z,4.37
2022-11-27T10:16:54.210Z,4.41
2022-11-27T10:19:27.777Z,4.46
2022-11-27T10:22:02.916Z,4.50
2022-11-27T10:24:39.953Z,4.55
2022-11-27T10:27:20.468Z,4.60
2022-11-27T10:29:54.440Z,4.63
2022-11-27T10:32:54.261Z,4.65
2022-11-27T10:35:24.848Z,4.68
2022-11-27T10:38:11.120Z,4.74
2022-11-27T10:40:45.632Z,4.81
2022-11-27T10:43:19.770Z,4.86
2022-11-27T10:46:02.279Z,4.90
2022-11-27T10:48:30.404Z,4.93
2022-11-27T10:50:59.570Z,4.98
2022-11-27T10:53:32.093Z,4.99
2022-11-27T10:56:12.013Z,5.00
2022-11-27T10:59:05.552Z,5.02
2022-11-27T11:01:48.637Z,5.02
2022-11-27T11:04:37.610Z,5.02
2022-11-27T11:07:25.517Z,5.03
2022-11-27T11:09:54.615Z,5.07
2022-11-27T11:12:23.679Z,5.07
2022-11-27T11:14:56.872Z,5.09
2022-11-27T11:17:31.387Z,5.11
2022-11-27T11:19:59.278Z,5.16
2022-11-27T11:22:28.324Z,5.13
2022-11-27T11:24:56.611Z,5.09
2022-11-27T11:27:30.367Z,5.12
2022-11-27T11:30:00.647Z,5.13
2022-11-27T11:32:40.249Z,5.11
2022-11-27T11:35:30.451Z,5.12
2022-11-27T11:37:59.282Z,5.11
2022-11-27T11:40:32.911Z,5.10
2022-11-27T11:43:10.116Z,5.13
2022-11-27T11:45:48.729Z,5.17
2022-11-27T11:48:25.506Z,5.25
2022-11-27T11:50:59.153Z,5.35
2022-11-27T11:53:40.455Z,5.33
2022-11-27T11:56:44.863Z,5.40
2022-11-27T11:59:31.190Z,5.42
2022-11-27T12:02:18.564Z,5.34
2022-11-27T12:05:15.698Z,5.33
2022-11-27T12:07:52.002Z,5.25
2022-11-27T12:10:32.629Z,5.20
2022-11-27T12:13:03.234Z,5.18
2022-11-27T12:16:01.080Z,5.18
2022-11-27T12:18:45.521Z,5.22
2022-11-27T12:21:15.191Z,5.27
2022-11-27T12:23:51.195Z,5.29
2022-11-27T12:26:37.239Z,5.28
2022-11-27T12:29:23.985Z,5.29
2022-11-27T12:32:17.099Z,5.28
2022-11-27T12:35:11.482Z,5.22
2022-11-27T12:37:57.734Z,5.21
2022-11-27T12:40:37.654Z,5.17
2022-11-27T12:43:17.202Z,5.16
2022-11-27T12:46:01.618Z,5.14
2022-11-27T12:48:39.429Z,5.12
2022-11-27T12:51:12.309Z,5.11
2022-11-27T12:53:45.484Z,5.16
2022-11-27T12:56:20.951Z,5.20
2022-11-27T12:58:53.233Z,5.24
2022-11-27T13:01:27.763Z,5.30
2022-11-27T13:04:10.990Z,5.31
2022-11-27T13:06:53.218Z,5.34
2022-11-27T13:09:44.174Z,5.31
2022-11-27T13:12:20.396Z,5.33
2022-11-27T13:14:56.681Z,5.34
2022-11-27T13:17:37.226Z,5.36
2022-11-27T13:20:14.317Z,5.39
2022-11-27T13:22:42.586Z,5.41
2022-11-27T13:25:14.672Z,5.43
2022-11-27T13:27:47.161Z,5.47
2022-11-27T13:30:24.943Z,5.51
2022-11-27T13:32:57.626Z,5.55
2022-11-27T13:35:39.949Z,5.54
2022-11-27T13:38:19.482Z,5.46
2022-11-27T13:40:52.036Z,5.42
2022-11-27T13:43:29.051Z,5.36
2022-11-27T13:46:06.120Z,5.30
2022-11-27T13:48:38.539Z,5.20
2022-11-27T13:51:09.398Z,5.17
2022-11-27T13:53:42.320Z,5.17
2022-11-27T13:56:10.113Z,5.19
2022-11-27T13:58:40.663Z,5.22
2022-11-27T14:01:21.027Z,5.16
2022-11-27T14:03:49.701Z,5.06
2022-11-27T14:06:22.019Z,5.08
2022-11-27T14:08:59.370Z,5.06
2022-11-27T14:11:41.186Z,4.99
2022-11-27T14:14:19.978Z,4.97
2022-11-27T14:17:05.022Z,4.99
2022-11-27T14:19:44.062Z,5.01
2022-11-27T14:22:17.225Z,5.03
2022-11-27T14:28:36.263Z,5.18
2022-11-27T14:31:03.524Z,5.14
2022-11-27T14:44:38.959Z,4.74
2022-11-27T14:47:08.372Z,4.57
2022-11-27T14:49:36.284Z,4.49
2022-11-27T14:52:12.810Z,4.43
2022-11-27T14:54:41.849Z,4.34
2022-11-27T14:57:18.300Z,4.25
2022-11-27T14:59:46.030Z,4.11
2022-11-27T15:02:13.773Z,4.05
2022-11-27T15:04:43.359Z,3.98
2022-11-27T15:07:17.370Z,3.92
2022-11-27T15:09:48.839Z,3.87
2022-11-27T15:12:36.689Z,3.79
2022-11-27T15:15:08.954Z,3.66
2022-11-27T15:17:39.526Z,3.58
2022-11-27T15:20:16.825Z,3.59
2022-11-27T15:22:53.224Z,3.59
2022-11-27T15:25:34.733Z,3.62
2022-11-27T15:28:02.756Z,3.57
2022-11-27T15:30:30.703Z,3.53
2022-11-27T15:32:58.579Z,3.52
2022-11-27T15:35:29.244Z,3.48
2022-11-27T15:37:58.305Z,3.41
2022-11-27T15:40:36.902Z,3.38
2022-11-27T15:43:16.121Z,3.44
2022-11-27T15:45:44.648Z,3.50
2022-11-27T15:48:17.939Z,3.57
2022-11-27T15:50:51.408Z,3.55
2022-11-27T15:53:19.617Z,3.56
2022-11-27T15:55:47.489Z,3.55
2022-11-27T15:58:17.579Z,3.55
2022-11-27T16:00:45.366Z,3.54
2022-11-27T16:03:14.437Z,3.50
2022-11-27T16:05:42.133Z,3.46
2022-11-27T16:08:12.892Z,3.49
2022-11-27T16:10:42.142Z,3.53
2022-11-27T16:13:09.906Z,3.55
2022-11-27T16:15:37.721Z,3.59
2022-11-27T16:18:07.150Z,3.62
2022-11-27T16:20:35.045Z,3.62
2022-11-27T16:23:02.766Z,3.59
2022-11-27T16:25:30.526Z,3.55
2022-11-27T16:28:02.829Z,3.49
2022-11-27T16:30:31.931Z,3.51
2022-11-27T16:32:59.882Z,3.55
2022-11-27T16:35:27.651Z,3.56
2022-11-27T16:37:56.091Z,3.57
2022-11-27T16:40:23.830Z,3.56
2022-11-27T16:42:51.758Z,3.48
2022-11-27T16:45:19.804Z,3.46
2022-11-27T16:47:48.533Z,3.41
2022-11-27T16:50:17.780Z,3.41
2022-11-27T16:52:48.947Z,3.37
2022-11-27T16:55:21.696Z,3.35
2022-11-27T16:57:50.097Z,3.41
2022-11-27T17:00:18.501Z,3.50
2022-11-27T17:02:46.367Z,3.54
2022-11-27T17:05:14.201Z,3.58
2022-11-27T17:07:42.658Z,3.63
2022-11-27T17:10:10.770Z,3.67
2022-11-27T17:12:38.530Z,3.67
2022-11-27T17:15:06.725Z,3.67
2022-11-27T17:17:39.859Z,3.65
2022-11-27T17:20:08.610Z,3.64
2022-11-27T17:22:36.944Z,3.62
2022-11-27T17:25:05.403Z,3.63
2022-11-27T17:27:34.240Z,3.66
2022-11-27T17:30:03.534Z,3.66
2022-11-27T17:32:31.957Z,3.68
2022-11-27T17:34:59.648Z,3.71
2022-11-27T17:37:27.600Z,3.72
2022-11-27T17:39:55.359Z,3.68
2022-11-27T17:42:23.183Z,3.70
2022-11-27T17:44:51.590Z,3.70
2022-11-27T17:47:19.315Z,3.69
2022-11-27T17:49:47.110Z,3.69
2022-11-27T17:52:14.874Z,3.72
2022-11-27T17:54:43.310Z,3.75
2022-11-27T17:57:11.020Z,3.77
2022-11-27T17:59:40.178Z,3.70
2022-11-27T18:02:11.245Z,3.65
2022-11-27T18:04:39.038Z,3.56
2022-11-27T18:07:06.796Z,3.53
2022-11-27T18:09:34.464Z,3.53
2022-11-27T18:12:06.294Z,3.54
2022-11-27T18:14:34.686Z,3.57
2022-11-27T18:17:05.018Z,3.59
2022-11-27T18:19:32.927Z,3.66
2022-11-27T18:22:00.700Z,3.69
2022-11-27T18:27:58.145Z,3.66
2022-11-27T18:30:25.871Z,3.63
2022-11-27T18:32:53.610Z,3.63
2022-11-27T18:35:24.015Z,3.62
2022-11-27T18:37:51.675Z,3.61
2022-11-27T18:40:19.473Z,3.62
2022-11-27T18:42:47.176Z,3.61
2022-11-27T18:45:31.820Z,3.62
2022-11-27T18:48:00.977Z,3.62
2022-11-27T18:50:29.967Z,3.66
2022-11-27T18:52:58.037Z,3.66
2022-11-27T18:55:25.974Z,3.62
2022-11-27T18:57:54.670Z,3.61
2022-11-27T19:00:22.446Z,3.57
2022-11-27T19:02:50.301Z,3.51
2022-11-27T19:05:18.096Z,3.50
2022-11-27T19:07:45.869Z,3.51
2022-11-27T19:10:13.955Z,3.50
2022-11-27T19:12:41.738Z,3.47
2022-11-27T19:15:09.885Z,3.46
2022-11-27T19:17:39.106Z,3.39
2022-11-27T19:20:08.244Z,3.32
2022-11-27T19:22:38.314Z,3.28
2022-11-27T19:28:39.585Z,3.15
2022-11-27T19:31:10.286Z,3.04
2022-11-27T19:33:39.980Z,2.98
2022-11-27T19:36:11.267Z,2.95
2022-11-27T19:38:41.215Z,2.91
2022-11-27T19:41:12.446Z,2.86
2022-11-27T19:43:40.620Z,2.82
2022-11-27T19:46:17.942Z,2.80
2022-11-27T19:48:46.532Z,2.77
2022-11-27T19:51:15.471Z,2.73
2022-11-27T19:53:43.783Z,2.77
2022-11-27T19:56:12.178Z,2.81
2022-11-27T19:58:41.093Z,2.83
2022-11-27T20:01:14.245Z,2.83
2022-11-27T20:03:43.117Z,2.83
2022-11-27T20:06:14.794Z,2.86
2022-11-27T20:08:44.109Z,2.84
2022-11-27T20:11:15.429Z,2.77
2022-11-27T20:13:43.434Z,2.78
2022-11-27T20:16:14.589Z,2.80
2022-11-27T20:18:42.986Z,2.84
2022-11-27T20:21:14.641Z,2.88
2022-11-27T20:23:43.770Z,2.92
2022-11-27T20:26:15.143Z,2.96
2022-11-27T20:28:43.641Z,3.02
2022-11-27T20:31:18.255Z,3.05
2022-11-27T20:33:46.292Z,3.03
2022-11-27T20:36:17.131Z,3.04
2022-11-27T20:38:45.450Z,3.05
2022-11-27T20:41:17.485Z,3.08
2022-11-27T20:43:45.911Z,3.06
2022-11-27T20:46:15.594Z,3.05
2022-11-27T20:48:47.261Z,3.04
2022-11-27T20:51:18.585Z,3.03
2022-11-27T20:53:47.773Z,2.99
2022-11-27T20:56:17.982Z,3.01
2022-11-27T20:58:47.946Z,3.06
2022-11-27T21:01:29.642Z,3.05
2022-11-27T21:04:00.562Z,3.03
2022-11-27T21:06:31.962Z,3.10
2022-11-27T21:09:02.215Z,3.11
2022-11-27T21:11:32.604Z,3.07
2022-11-27T21:14:03.529Z,2.99
2022-11-27T21:16:34.548Z,2.94
2022-11-27T21:19:05.784Z,2.87
2022-11-27T21:21:34.496Z,2.76
2022-11-27T21:24:04.696Z,2.66
2022-11-27T21:26:33.239Z,2.66
2022-11-27T21:29:01.091Z,2.71
2022-11-27T21:31:35.949Z,2.75
2022-11-27T21:34:07.140Z,2.76
2022-11-27T21:36:36.761Z,2.78
2022-11-27T21:39:08.196Z,2.77
2022-11-27T21:41:36.692Z,2.75
2022-11-27T21:44:05.772Z,2.74
2022-11-27T21:46:33.875Z,2.73
2022-11-27T21:49:05.662Z,2.77
2022-11-27T21:51:33.643Z,2.82
2022-11-27T21:54:07.488Z,2.87
2022-11-27T21:56:38.187Z,2.83
2022-11-27T21:59:08.235Z,2.80
2022-11-27T22:01:36.346Z,2.79
2022-11-27T22:04:04.586Z,2.75
2022-11-27T22:06:38.360Z,2.80
2022-11-27T22:09:11.893Z,2.82
2022-11-27T22:11:44.499Z,2.84
2022-11-27T22:14:14.063Z,2.78
2022-11-27T22:16:45.211Z,2.79
2022-11-27T22:19:14.801Z,2.72
2022-11-27T22:21:44.444Z,2.74
2022-11-27T22:27:40.482Z,2.86
2022-11-27T22:30:11.134Z,2.90
2022-11-27T22:32:39.233Z,2.85
2022-11-27T22:35:07.516Z,2.86
2022-11-27T22:37:35.478Z,2.90
2022-11-27T22:40:03.928Z,2.89
2022-11-27T22:42:31.856Z,2.86
2022-11-27T22:44:59.570Z,2.84
2022-11-27T22:47:27.317Z,2.81
2022-11-27T22:49:55.068Z,2.80
2022-11-27T22:52:24.160Z,2.82
2022-11-27T22:54:51.952Z,2.75
2022-11-27T22:57:20.292Z,2.68
2022-11-27T22:59:49.181Z,2.71
2022-11-27T23:02:16.967Z,2.68
2022-11-27T23:04:45.279Z,2.72
2022-11-27T23:07:14.057Z,2.66
2022-11-27T23:09:42.163Z,2.62
2022-11-27T23:12:09.911Z,2.59
2022-11-27T23:14:38.107Z,2.58
2022-11-27T23:17:05.981Z,2.50
2022-11-27T23:19:33.704Z,2.44
2022-11-27T23:22:01.676Z,2.45
2022-11-27T23:24:29.401Z,2.43
2022-11-27T23:26:57.159Z,2.43
2022-11-27T23:29:25.263Z,2.42
2022-11-27T23:31:53.026Z,2.44
2022-11-27T23:34:20.766Z,2.50
2022-11-27T23:36:48.457Z,2.57
2022-11-27T23:39:17.491Z,2.58
2022-11-27T23:41:46.265Z,2.57
2022-11-27T23:44:15.032Z,2.55
2022-11-27T23:46:42.755Z,2.54
2022-11-27T23:49:10.433Z,2.51
2022-11-27T23:51:38.117Z,2.49
2022-11-27T23:54:09.180Z,2.47
2022-11-27T23:56:38.231Z,2.45
2022-11-27T23:59:06.008Z,2.44
